sensor_id;sensor_type;location;lat;lon;timestamp;temperature;humidity
25320;DHT22;13256;49.012;8.610;2023-01-16T00:00:34;6.70;99.90
25320;DHT22;13256;49.012;8.610;2023-01-16T00:03:02;6.70;99.90
25320;DHT22;13256;49.012;8.610;2023-01-16T00:05:49;6.70;99.90
25320;DHT22;13256;49.012;8.610;2023-01-16T00:08:16;6.70;99.90
25320;DHT22;13256;49.012;8.610;2023-01-16T00:11:00;6.70;99.90
25320;DHT22;13256;49.012;8.610;2023-01-16T00:13:29;6.70;99.90
25320;DHT22;13256;49.012;8.610;2023-01-16T00:16:03;6.70;99.90
25320;DHT22;13256;49.012;8.610;2023-01-16T00:18:38;6.60;99.90
25320;DHT22;13256;49.012;8.610;2023-01-16T00:21:08;6.60;99.90
25320;DHT22;13256;49.012;8.610;2023-01-16T00:23:49;6.60;99.90
25320;DHT22;13256;49.012;8.610;2023-01-16T00:26:33;6.60;99.90
25320;DHT22;13256;49.012;8.610;2023-01-16T00:29:00;6.60;99.90
25320;DHT22;13256;49.012;8.610;2023-01-16T00:31:36;6.60;99.90
25320;DHT22;13256;49.012;8.610;2023-01-16T00:34:04;6.60;99.90
25320;DHT22;13256;49.012;8.610;2023-01-16T00:36:32;6.50;99.90
25320;DHT22;13256;49.012;8.610;2023-01-16T00:39:06;6.50;99.90
25320;DHT22;13256;49.012;8.610;2023-01-16T00:41:33;6.40;99.90
25320;DHT22;13256;49.012;8.610;2023-01-16T00:44:03;6.40;99.90
25320;DHT22;13256;49.012;8.610;2023-01-16T00:46:36;6.40;99.90
25320;DHT22;13256;49.012;8.610;2023-01-16T00:49:06;6.40;99.90
25320;DHT22;13256;49.012;8.610;2023-01-16T00:52:01;6.50;99.90
25320;DHT22;13256;49.012;8.610;2023-01-16T00:54:49;6.50;99.90
25320;DHT22;13256;49.012;8.610;2023-01-16T00:57:32;6.50;99.90
25320;DHT22;13256;49.012;8.610;2023-01-16T01:00:07;6.50;99.90
25320;DHT22;13256;49.012;8.610;2023-01-16T01:02:38;6.40;99.90
25320;DHT22;13256;49.012;8.610;2023-01-16T01:05:12;6.40;99.90
25320;DHT22;13256;49.012;8.610;2023-01-16T01:08:01;6.40;99.90
25320;DHT22;13256;49.012;8.610;2023-01-16T01:10:47;6.40;99.90
25320;DHT22;13256;49.012;8.610;2023-01-16T01:13:14;6.40;99.90
25320;DHT22;13256;49.012;8.610;2023-01-16T01:16:01;6.40;99.90
25320;DHT22;13256;49.012;8.610;2023-01-16T01:18:33;6.40;99.90
25320;DHT22;13256;49.012;8.610;2023-01-16T01:21:02;6.40;99.90
25320;DHT22;13256;49.012;8.610;2023-01-16T01:23:31;6.40;99.90
25320;DHT22;13256;49.012;8.610;2023-01-16T01:26:16;6.30;99.90
25320;DHT22;13256;49.012;8.610;2023-01-16T01:28:57;6.30;99.90
25320;DHT22;13256;49.012;8.610;2023-01-16T01:31:25;6.30;99.90
25320;DHT22;13256;49.012;8.610;2023-01-16T01:33:56;6.30;99.90
25320;DHT22;13256;49.012;8.610;2023-01-16T01:36:26;6.30;99.90
25320;DHT22;13256;49.012;8.610;2023-01-16T01:38:54;6.30;99.90
25320;DHT22;13256;49.012;8.610;2023-01-16T01:41:22;6.30;99.90
25320;DHT22;13256;49.012;8.610;2023-01-16T01:47:32;6.30;99.90
25320;DHT22;13256;49.012;8.610;2023-01-16T01:50:12;6.30;99.90
25320;DHT22;13256;49.012;8.610;2023-01-16T01:52:54;6.30;99.90
25320;DHT22;13256;49.012;8.610;2023-01-16T01:55:26;6.20;99.90
25320;DHT22;13256;49.012;8.610;2023-01-16T01:57:56;6.20;99.90
25320;DHT22;13256;49.012;8.610;2023-01-16T02:00:33;6.20;99.90
25320;DHT22;13256;49.012;8.610;2023-01-16T02:03:46;6.10;99.90
25320;DHT22;13256;49.012;8.610;2023-01-16T02:06:25;6.10;99.90
25320;DHT22;13256;49.012;8.610;2023-01-16T02:08:57;6.00;99.90
25320;DHT22;13256;49.012;8.610;2023-01-16T02:11:40;6.00;99.90
25320;DHT22;13256;49.012;8.610;2023-01-16T02:14:14;6.00;99.90
25320;DHT22;13256;49.012;8.610;2023-01-16T02:16:44;6.00;99.90
25320;DHT22;13256;49.012;8.610;2023-01-16T02:31:49;5.80;99.90
25320;DHT22;13256;49.012;8.610;2023-01-16T02:35:24;5.80;99.90
25320;DHT22;13256;49.012;8.610;2023-01-16T02:37:47;5.80;99.90
25320;DHT22;13256;49.012;8.610;2023-01-16T02:43:42;5.70;99.90
25320;DHT22;13256;49.012;8.610;2023-01-16T02:46:48;5.70;99.90
25320;DHT22;13256;49.012;8.610;2023-01-16T02:49:39;5.70;99.90
25320;DHT22;13256;49.012;8.610;2023-01-16T02:52:33;5.60;99.90
25320;DHT22;13256;49.012;8.610;2023-01-16T02:58:11;5.60;99.90
25320;DHT22;13256;49.012;8.610;2023-01-16T03:00:58;5.60;99.90
25320;DHT22;13256;49.012;8.610;2023-01-16T03:06:59;5.60;99.90
25320;DHT22;13256;49.012;8.610;2023-01-16T03:10:11;5.60;99.90
25320;DHT22;13256;49.012;8.610;2023-01-16T03:15:47;5.50;99.90
25320;DHT22;13256;49.012;8.610;2023-01-16T03:21:12;5.50;99.90
25320;DHT22;13256;49.012;8.610;2023-01-16T03:23:54;5.50;99.90
25320;DHT22;13256;49.012;8.610;2023-01-16T03:26:45;5.50;99.90
25320;DHT22;13256;49.012;8.610;2023-01-16T03:34:48;5.50;99.90
25320;DHT22;13256;49.012;8.610;2023-01-16T03:37:44;5.50;99.90
25320;DHT22;13256;49.012;8.610;2023-01-16T03:40:18;5.50;99.90
25320;DHT22;13256;49.012;8.610;2023-01-16T03:43:26;5.50;99.90
25320;DHT22;13256;49.012;8.610;2023-01-16T03:46:29;5.50;99.90
25320;DHT22;13256;49.012;8.610;2023-01-16T03:49:12;5.50;99.90
25320;DHT22;13256;49.012;8.610;2023-01-16T03:51:41;5.50;99.90
25320;DHT22;13256;49.012;8.610;2023-01-16T03:57:33;5.50;99.90
25320;DHT22;13256;49.012;8.610;2023-01-16T04:00:04;5.50;99.90
25320;DHT22;13256;49.012;8.610;2023-01-16T04:03:01;5.40;99.90
25320;DHT22;13256;49.012;8.610;2023-01-16T04:05:51;5.40;99.90
25320;DHT22;13256;49.012;8.610;2023-01-16T04:08:28;5.40;99.90
25320;DHT22;13256;49.012;8.610;2023-01-16T04:10:59;5.40;99.90
25320;DHT22;13256;49.012;8.610;2023-01-16T04:13:48;5.40;99.90
25320;DHT22;13256;49.012;8.610;2023-01-16T04:16:32;5.40;99.90
25320;DHT22;13256;49.012;8.610;2023-01-16T04:19:01;5.40;99.90
25320;DHT22;13256;49.012;8.610;2023-01-16T04:21:46;5.40;99.90
25320;DHT22;13256;49.012;8.610;2023-01-16T04:24:34;5.40;99.90
25320;DHT22;13256;49.012;8.610;2023-01-16T04:27:21;5.40;99.90
25320;DHT22;13256;49.012;8.610;2023-01-16T04:29:49;5.30;99.90
25320;DHT22;13256;49.012;8.610;2023-01-16T04:32:30;5.30;99.90
25320;DHT22;13256;49.012;8.610;2023-01-16T04:38:27;5.20;99.90
25320;DHT22;13256;49.012;8.610;2023-01-16T04:40:54;5.10;99.90
25320;DHT22;13256;49.012;8.610;2023-01-16T04:43:24;5.10;99.90
25320;DHT22;13256;49.012;8.610;2023-01-16T04:46:06;5.10;99.90
25320;DHT22;13256;49.012;8.610;2023-01-16T04:49:14;5.10;99.90
25320;DHT22;13256;49.012;8.610;2023-01-16T04:51:59;5.10;99.90
25320;DHT22;13256;49.012;8.610;2023-01-16T04:54:45;5.10;99.90
25320;DHT22;13256;49.012;8.610;2023-01-16T04:57:27;5.00;99.90
25320;DHT22;13256;49.012;8.610;2023-01-16T04:59:54;5.10;99.90
25320;DHT22;13256;49.012;8.610;2023-01-16T05:02:29;5.10;99.90
25320;DHT22;13256;49.012;8.610;2023-01-16T05:05:01;5.00;99.90
25320;DHT22;13256;49.012;8.610;2023-01-16T05:07:28;5.00;99.90
25320;DHT22;13256;49.012;8.610;2023-01-16T05:09:54;5.00;99.90
25320;DHT22;13256;49.012;8.610;2023-01-16T05:12:21;5.00;99.90
25320;DHT22;13256;49.012;8.610;2023-01-16T05:14:49;5.00;99.90
25320;DHT22;13256;49.012;8.610;2023-01-16T05:17:18;5.00;99.90
25320;DHT22;13256;49.012;8.610;2023-01-16T05:19:50;5.00;99.90
25320;DHT22;13256;49.012;8.610;2023-01-16T05:22:31;5.00;99.90
25320;DHT22;13256;49.012;8.610;2023-01-16T05:25:00;5.00;99.90
25320;DHT22;13256;49.012;8.610;2023-01-16T05:27:27;4.90;99.90
25320;DHT22;13256;49.012;8.610;2023-01-16T05:29:55;4.90;99.90
25320;DHT22;13256;49.012;8.610;2023-01-16T05:32:24;4.90;99.90
25320;DHT22;13256;49.012;8.610;2023-01-16T05:34:51;4.80;99.90
25320;DHT22;13256;49.012;8.610;2023-01-16T05:37:18;4.80;99.90
25320;DHT22;13256;49.012;8.610;2023-01-16T05:39:45;4.80;99.90
25320;DHT22;13256;49.012;8.610;2023-01-16T05:42:12;4.80;99.90
25320;DHT22;13256;49.012;8.610;2023-01-16T05:47:25;4.70;99.90
25320;DHT22;13256;49.012;8.610;2023-01-16T05:49:53;4.60;99.90
25320;DHT22;13256;49.012;8.610;2023-01-16T05:52:23;4.60;99.90
25320;DHT22;13256;49.012;8.610;2023-01-16T05:57:52;4.50;99.90
25320;DHT22;13256;49.012;8.610;2023-01-16T06:00:23;4.50;99.90
25320;DHT22;13256;49.012;8.610;2023-01-16T06:02:52;4.50;99.90
25320;DHT22;13256;49.012;8.610;2023-01-16T06:05:21;4.50;99.90
25320;DHT22;13256;49.012;8.610;2023-01-16T06:07:54;4.50;99.90
25320;DHT22;13256;49.012;8.610;2023-01-16T06:10:25;4.50;99.90
25320;DHT22;13256;49.012;8.610;2023-01-16T06:12:57;4.40;99.90
25320;DHT22;13256;49.012;8.610;2023-01-16T06:15:24;4.50;99.90
25320;DHT22;13256;49.012;8.610;2023-01-16T06:17:53;4.40;99.90
25320;DHT22;13256;49.012;8.610;2023-01-16T06:20:22;4.40;99.90
25320;DHT22;13256;49.012;8.610;2023-01-16T06:22:48;4.40;99.90
25320;DHT22;13256;49.012;8.610;2023-01-16T06:25:17;4.40;99.90
25320;DHT22;13256;49.012;8.610;2023-01-16T06:30:34;4.40;99.90
25320;DHT22;13256;49.012;8.610;2023-01-16T06:33:01;4.30;99.90
25320;DHT22;13256;49.012;8.610;2023-01-16T06:35:30;4.30;99.90
25320;DHT22;13256;49.012;8.610;2023-01-16T06:38:06;4.30;99.90
25320;DHT22;13256;49.012;8.610;2023-01-16T06:40:35;4.30;99.90
25320;DHT22;13256;49.012;8.610;2023-01-16T06:43:02;4.20;99.90
25320;DHT22;13256;49.012;8.610;2023-01-16T06:45:30;4.20;99.90
25320;DHT22;13256;49.012;8.610;2023-01-16T06:47:57;4.20;99.90
25320;DHT22;13256;49.012;8.610;2023-01-16T06:50:27;4.20;99.90
25320;DHT22;13256;49.012;8.610;2023-01-16T06:52:56;4.20;99.90
25320;DHT22;13256;49.012;8.610;2023-01-16T06:55:25;4.20;99.90
25320;DHT22;13256;49.012;8.610;2023-01-16T06:57:56;4.10;99.90
25320;DHT22;13256;49.012;8.610;2023-01-16T07:00:26;4.10;99.90
25320;DHT22;13256;49.012;8.610;2023-01-16T07:02:54;4.10;99.90
25320;DHT22;13256;49.012;8.610;2023-01-16T07:05:22;4.10;99.90
25320;DHT22;13256;49.012;8.610;2023-01-16T07:07:49;4.10;99.90
25320;DHT22;13256;49.012;8.610;2023-01-16T07:10:22;4.10;99.90
25320;DHT22;13256;49.012;8.610;2023-01-16T07:15:45;4.10;99.90
25320;DHT22;13256;49.012;8.610;2023-01-16T07:18:35;4.10;99.90
25320;DHT22;13256;49.012;8.610;2023-01-16T07:21:25;4.10;99.90
25320;DHT22;13256;49.012;8.610;2023-01-16T07:24:14;4.10;99.90
25320;DHT22;13256;49.012;8.610;2023-01-16T07:26:43;4.10;99.90
25320;DHT22;13256;49.012;8.610;2023-01-16T07:29:11;4.10;99.90
25320;DHT22;13256;49.012;8.610;2023-01-16T07:31:38;4.10;99.90
25320;DHT22;13256;49.012;8.610;2023-01-16T07:34:05;4.10;99.90
25320;DHT22;13256;49.012;8.610;2023-01-16T07:36:32;4.10;99.90
25320;DHT22;13256;49.012;8.610;2023-01-16T07:39:01;4.10;99.90
25320;DHT22;13256;49.012;8.610;2023-01-16T07:41:36;4.20;99.90
25320;DHT22;13256;49.012;8.610;2023-01-16T07:44:09;4.20;99.90
25320;DHT22;13256;49.012;8.610;2023-01-16T07:46:36;4.20;99.90
25320;DHT22;13256;49.012;8.610;2023-01-16T07:49:03;4.30;99.90
25320;DHT22;13256;49.012;8.610;2023-01-16T07:51:32;4.30;99.90
25320;DHT22;13256;49.012;8.610;2023-01-16T07:54:00;4.30;99.90
25320;DHT22;13256;49.012;8.610;2023-01-16T07:56:28;4.30;99.90
25320;DHT22;13256;49.012;8.610;2023-01-16T07:58:56;4.40;99.90
25320;DHT22;13256;49.012;8.610;2023-01-16T08:01:24;4.40;99.90
25320;DHT22;13256;49.012;8.610;2023-01-16T08:03:55;4.40;99.90
25320;DHT22;13256;49.012;8.610;2023-01-16T08:06:23;4.40;99.90
25320;DHT22;13256;49.012;8.610;2023-01-16T08:11:53;4.50;99.90
25320;DHT22;13256;49.012;8.610;2023-01-16T08:17:18;4.60;99.90
25320;DHT22;13256;49.012;8.610;2023-01-16T08:19:45;4.60;99.90
25320;DHT22;13256;49.012;8.610;2023-01-16T08:22:12;4.70;99.90
25320;DHT22;13256;49.012;8.610;2023-01-16T08:24:39;4.70;99.90
25320;DHT22;13256;49.012;8.610;2023-01-16T08:33:02;4.70;99.90
25320;DHT22;13256;49.012;8.610;2023-01-16T08:41:13;4.90;99.90
25320;DHT22;13256;49.012;8.610;2023-01-16T08:44:02;4.90;99.90
25320;DHT22;13256;49.012;8.610;2023-01-16T08:47:00;4.90;99.90
25320;DHT22;13256;49.012;8.610;2023-01-16T08:49:47;4.90;99.90
25320;DHT22;13256;49.012;8.610;2023-01-16T08:52:35;4.90;99.90
25320;DHT22;13256;49.012;8.610;2023-01-16T08:55:06;5.00;99.90
25320;DHT22;13256;49.012;8.610;2023-01-16T08:57:33;5.00;99.90
25320;DHT22;13256;49.012;8.610;2023-01-16T09:02:32;5.00;99.90
25320;DHT22;13256;49.012;8.610;2023-01-16T09:05:29;5.00;99.90
25320;DHT22;13256;49.012;8.610;2023-01-16T09:08:02;5.00;99.90
25320;DHT22;13256;49.012;8.610;2023-01-16T09:10:29;5.10;99.90
25320;DHT22;13256;49.012;8.610;2023-01-16T09:13:00;5.10;99.90
25320;DHT22;13256;49.012;8.610;2023-01-16T09:15:47;5.10;99.90
25320;DHT22;13256;49.012;8.610;2023-01-16T09:18:16;5.20;99.90
25320;DHT22;13256;49.012;8.610;2023-01-16T09:20:43;5.20;99.90
25320;DHT22;13256;49.012;8.610;2023-01-16T09:23:10;5.30;99.90
25320;DHT22;13256;49.012;8.610;2023-01-16T09:25:39;5.30;99.90
25320;DHT22;13256;49.012;8.610;2023-01-16T09:28:05;5.40;99.90
25320;DHT22;13256;49.012;8.610;2023-01-16T09:30:33;5.50;99.90
25320;DHT22;13256;49.012;8.610;2023-01-16T09:33:00;5.60;99.90
25320;DHT22;13256;49.012;8.610;2023-01-16T09:35:31;5.60;99.90
25320;DHT22;13256;49.012;8.610;2023-01-16T09:37:58;5.60;99.90
25320;DHT22;13256;49.012;8.610;2023-01-16T09:40:28;5.60;99.90
25320;DHT22;13256;49.012;8.610;2023-01-16T09:46:11;5.60;99.90
25320;DHT22;13256;49.012;8.610;2023-01-16T09:48:56;5.60;99.90
25320;DHT22;13256;49.012;8.610;2023-01-16T09:51:31;5.60;99.90
25320;DHT22;13256;49.012;8.610;2023-01-16T09:54:09;5.60;99.90
25320;DHT22;13256;49.012;8.610;2023-01-16T09:57:12;5.60;99.90
25320;DHT22;13256;49.012;8.610;2023-01-16T09:59:58;5.60;99.90
25320;DHT22;13256;49.012;8.610;2023-01-16T10:02:30;5.60;99.90
25320;DHT22;13256;49.012;8.610;2023-01-16T10:05:00;5.60;99.90
25320;DHT22;13256;49.012;8.610;2023-01-16T10:16:15;5.70;99.90
25320;DHT22;13256;49.012;8.610;2023-01-16T10:21:51;5.80;99.90
25320;DHT22;13256;49.012;8.610;2023-01-16T10:25:08;5.90;99.90
25320;DHT22;13256;49.012;8.610;2023-01-16T10:30:20;6.00;99.90
25320;DHT22;13256;49.012;8.610;2023-01-16T10:33:02;6.00;99.90
25320;DHT22;13256;49.012;8.610;2023-01-16T10:35:38;6.10;99.90
25320;DHT22;13256;49.012;8.610;2023-01-16T10:40:53;6.20;99.90
25320;DHT22;13256;49.012;8.610;2023-01-16T10:43:47;6.30;99.90
25320;DHT22;13256;49.012;8.610;2023-01-16T10:46:44;6.30;99.90
25320;DHT22;13256;49.012;8.610;2023-01-16T10:49:29;6.40;99.90
25320;DHT22;13256;49.012;8.610;2023-01-16T10:52:02;6.40;99.90
25320;DHT22;13256;49.012;8.610;2023-01-16T10:54:35;6.40;99.90
25320;DHT22;13256;49.012;8.610;2023-01-16T10:57:10;6.40;99.90
25320;DHT22;13256;49.012;8.610;2023-01-16T10:59:41;6.40;99.90
25320;DHT22;13256;49.012;8.610;2023-01-16T11:03:00;6.40;99.90
25320;DHT22;13256;49.012;8.610;2023-01-16T11:07:53;6.40;99.90
25320;DHT22;13256;49.012;8.610;2023-01-16T11:10:21;6.40;99.90
25320;DHT22;13256;49.012;8.610;2023-01-16T11:12:51;6.40;99.90
25320;DHT22;13256;49.012;8.610;2023-01-16T11:15:39;6.40;99.90
25320;DHT22;13256;49.012;8.610;2023-01-16T11:18:33;6.40;99.90
25320;DHT22;13256;49.012;8.610;2023-01-16T11:21:15;6.30;99.90
25320;DHT22;13256;49.012;8.610;2023-01-16T11:23:44;6.40;99.90
25320;DHT22;13256;49.012;8.610;2023-01-16T11:26:16;6.40;99.90
25320;DHT22;13256;49.012;8.610;2023-01-16T11:28:49;6.40;99.90
25320;DHT22;13256;49.012;8.610;2023-01-16T11:32:13;6.40;99.90
25320;DHT22;13256;49.012;8.610;2023-01-16T11:34:47;6.40;99.90
25320;DHT22;13256;49.012;8.610;2023-01-16T11:37:18;6.40;99.90
25320;DHT22;13256;49.012;8.610;2023-01-16T11:40:01;6.50;99.90
25320;DHT22;13256;49.012;8.610;2023-01-16T11:42:33;6.60;99.90
25320;DHT22;13256;49.012;8.610;2023-01-16T11:45:22;6.60;99.90
25320;DHT22;13256;49.012;8.610;2023-01-16T11:48:14;6.60;99.90
25320;DHT22;13256;49.012;8.610;2023-01-16T11:50:57;6.70;99.90
25320;DHT22;13256;49.012;8.610;2023-01-16T11:53:33;6.70;99.90
25320;DHT22;13256;49.012;8.610;2023-01-16T11:56:08;6.70;99.90
25320;DHT22;13256;49.012;8.610;2023-01-16T12:04:25;6.80;99.90
25320;DHT22;13256;49.012;8.610;2023-01-16T12:07:17;6.90;99.90
25320;DHT22;13256;49.012;8.610;2023-01-16T12:13:08;6.90;99.90
25320;DHT22;13256;49.012;8.610;2023-01-16T12:26:12;6.90;99.90
25320;DHT22;13256;49.012;8.610;2023-01-16T12:29:00;6.90;99.90
25320;DHT22;13256;49.012;8.610;2023-01-16T12:34:31;6.80;99.90
25320;DHT22;13256;49.012;8.610;2023-01-16T12:42:43;6.80;99.90
25320;DHT22;13256;49.012;8.610;2023-01-16T12:54:00;6.80;99.90
25320;DHT22;13256;49.012;8.610;2023-01-16T12:59:44;6.90;99.90
25320;DHT22;13256;49.012;8.610;2023-01-16T13:02:22;7.00;99.90
25320;DHT22;13256;49.012;8.610;2023-01-16T13:04:59;7.00;99.90
25320;DHT22;13256;49.012;8.610;2023-01-16T13:07:35;7.00;99.90
25320;DHT22;13256;49.012;8.610;2023-01-16T13:10:13;7.10;99.90
25320;DHT22;13256;49.012;8.610;2023-01-16T13:13:01;7.20;99.90
25320;DHT22;13256;49.012;8.610;2023-01-16T13:16:22;7.20;99.90
25320;DHT22;13256;49.012;8.610;2023-01-16T13:24:39;7.30;99.90
25320;DHT22;13256;49.012;8.610;2023-01-16T13:27:13;7.20;99.90
25320;DHT22;13256;49.012;8.610;2023-01-16T13:29:45;7.20;99.90
25320;DHT22;13256;49.012;8.610;2023-01-16T13:32:39;7.20;99.90
25320;DHT22;13256;49.012;8.610;2023-01-16T13:35:28;7.20;99.90
25320;DHT22;13256;49.012;8.610;2023-01-16T13:41:14;7.20;99.90
25320;DHT22;13256;49.012;8.610;2023-01-16T13:46:37;7.20;99.90
25320;DHT22;13256;49.012;8.610;2023-01-16T13:49:05;7.20;99.90
25320;DHT22;13256;49.012;8.610;2023-01-16T13:51:42;7.20;99.90
25320;DHT22;13256;49.012;8.610;2023-01-16T13:54:37;7.20;99.90
25320;DHT22;13256;49.012;8.610;2023-01-16T13:57:15;7.30;99.90
25320;DHT22;13256;49.012;8.610;2023-01-16T13:59:52;7.30;99.90
25320;DHT22;13256;49.012;8.610;2023-01-16T14:02:39;7.50;99.90
25320;DHT22;13256;49.012;8.610;2023-01-16T14:13:37;8.10;99.90
25320;DHT22;13256;49.012;8.610;2023-01-16T14:19:02;8.00;99.90
25320;DHT22;13256;49.012;8.610;2023-01-16T14:21:46;7.90;99.90
25320;DHT22;13256;49.012;8.610;2023-01-16T14:24:50;7.80;99.90
25320;DHT22;13256;49.012;8.610;2023-01-16T14:29:59;7.70;99.90
25320;DHT22;13256;49.012;8.610;2023-01-16T14:32:33;7.70;99.90
25320;DHT22;13256;49.012;8.610;2023-01-16T14:35:14;7.60;99.90
25320;DHT22;13256;49.012;8.610;2023-01-16T14:37:56;7.60;99.90
25320;DHT22;13256;49.012;8.610;2023-01-16T14:40:29;7.60;99.90
25320;DHT22;13256;49.012;8.610;2023-01-16T14:43:30;7.60;99.90
25320;DHT22;13256;49.012;8.610;2023-01-16T14:57:56;7.40;99.90
25320;DHT22;13256;49.012;8.610;2023-01-16T15:00:35;7.40;99.90
25320;DHT22;13256;49.012;8.610;2023-01-16T15:05:59;7.40;99.90
25320;DHT22;13256;49.012;8.610;2023-01-16T15:08:39;7.40;99.90
25320;DHT22;13256;49.012;8.610;2023-01-16T15:11:29;7.40;99.90
25320;DHT22;13256;49.012;8.610;2023-01-16T15:14:20;7.40;99.90
25320;DHT22;13256;49.012;8.610;2023-01-16T15:17:00;7.40;99.90
25320;DHT22;13256;49.012;8.610;2023-01-16T15:22:54;7.30;99.90
25320;DHT22;13256;49.012;8.610;2023-01-16T15:36:54;7.40;99.90
25320;DHT22;13256;49.012;8.610;2023-01-16T15:39:44;7.40;99.90
25320;DHT22;13256;49.012;8.610;2023-01-16T15:42:23;7.40;99.90
25320;DHT22;13256;49.012;8.610;2023-01-16T15:45:23;7.50;99.90
25320;DHT22;13256;49.012;8.610;2023-01-16T15:56:53;7.50;99.90
25320;DHT22;13256;49.012;8.610;2023-01-16T15:59:28;7.50;99.90
25320;DHT22;13256;49.012;8.610;2023-01-16T16:02:25;7.50;99.90
25320;DHT22;13256;49.012;8.610;2023-01-16T16:05:02;7.50;99.90
25320;DHT22;13256;49.012;8.610;2023-01-16T16:07:30;7.40;99.90
25320;DHT22;13256;49.012;8.610;2023-01-16T16:10:00;7.40;99.90
25320;DHT22;13256;49.012;8.610;2023-01-16T16:12:30;7.30;99.90
25320;DHT22;13256;49.012;8.610;2023-01-16T16:15:30;7.30;99.90
25320;DHT22;13256;49.012;8.610;2023-01-16T16:18:18;7.20;99.90
25320;DHT22;13256;49.012;8.610;2023-01-16T16:21:14;7.10;99.90
25320;DHT22;13256;49.012;8.610;2023-01-16T16:23:43;7.00;99.90
25320;DHT22;13256;49.012;8.610;2023-01-16T16:26:14;6.90;99.90
25320;DHT22;13256;49.012;8.610;2023-01-16T16:28:48;6.80;99.90
25320;DHT22;13256;49.012;8.610;2023-01-16T16:31:34;6.70;99.90
25320;DHT22;13256;49.012;8.610;2023-01-16T16:34:05;6.70;99.90
25320;DHT22;13256;49.012;8.610;2023-01-16T16:36:40;6.60;99.90
25320;DHT22;13256;49.012;8.610;2023-01-16T16:45:12;6.50;99.90
25320;DHT22;13256;49.012;8.610;2023-01-16T16:48:12;6.50;99.90
25320;DHT22;13256;49.012;8.610;2023-01-16T16:50:36;6.50;99.90
25320;DHT22;13256;49.012;8.610;2023-01-16T16:53:13;6.50;99.90
25320;DHT22;13256;49.012;8.610;2023-01-16T16:59:12;6.40;99.90
25320;DHT22;13256;49.012;8.610;2023-01-16T17:01:50;6.30;99.90
25320;DHT22;13256;49.012;8.610;2023-01-16T17:04:17;6.40;99.90
25320;DHT22;13256;49.012;8.610;2023-01-16T17:06:46;6.40;99.90
25320;DHT22;13256;49.012;8.610;2023-01-16T17:09:16;6.40;99.90
25320;DHT22;13256;49.012;8.610;2023-01-16T17:11:47;6.30;99.90
25320;DHT22;13256;49.012;8.610;2023-01-16T17:14:14;6.30;99.90
25320;DHT22;13256;49.012;8.610;2023-01-16T17:16:40;6.30;99.90
25320;DHT22;13256;49.012;8.610;2023-01-16T17:19:19;6.20;99.90
25320;DHT22;13256;49.012;8.610;2023-01-16T17:21:48;6.10;99.90
25320;DHT22;13256;49.012;8.610;2023-01-16T17:24:18;6.00;99.90
25320;DHT22;13256;49.012;8.610;2023-01-16T17:26:46;6.00;99.90
25320;DHT22;13256;49.012;8.610;2023-01-16T17:29:16;5.90;99.90
25320;DHT22;13256;49.012;8.610;2023-01-16T17:31:55;5.90;99.90
25320;DHT22;13256;49.012;8.610;2023-01-16T17:34:22;5.80;99.90
25320;DHT22;13256;49.012;8.610;2023-01-16T17:36:50;5.80;99.90
25320;DHT22;13256;49.012;8.610;2023-01-16T17:39:19;5.70;99.90
25320;DHT22;13256;49.012;8.610;2023-01-16T17:41:46;5.70;99.90
25320;DHT22;13256;49.012;8.610;2023-01-16T17:44:21;5.60;99.90
25320;DHT22;13256;49.012;8.610;2023-01-16T17:47:07;5.60;99.90
25320;DHT22;13256;49.012;8.610;2023-01-16T17:49:34;5.60;99.90
25320;DHT22;13256;49.012;8.610;2023-01-16T17:52:24;5.60;99.90
25320;DHT22;13256;49.012;8.610;2023-01-16T17:54:51;5.50;99.90
25320;DHT22;13256;49.012;8.610;2023-01-16T17:57:36;5.50;99.90
25320;DHT22;13256;49.012;8.610;2023-01-16T18:00:04;5.50;99.90
25320;DHT22;13256;49.012;8.610;2023-01-16T18:02:32;5.40;99.90
25320;DHT22;13256;49.012;8.610;2023-01-16T18:04:58;5.40;99.90
25320;DHT22;13256;49.012;8.610;2023-01-16T18:07:27;5.40;99.90
25320;DHT22;13256;49.012;8.610;2023-01-16T18:09:54;5.50;99.90
25320;DHT22;13256;49.012;8.610;2023-01-16T18:12:21;5.50;99.90
25320;DHT22;13256;49.012;8.610;2023-01-16T18:15:10;5.40;99.90
25320;DHT22;13256;49.012;8.610;2023-01-16T18:17:56;5.40;99.90
25320;DHT22;13256;49.012;8.610;2023-01-16T18:20:25;5.40;99.90
25320;DHT22;13256;49.012;8.610;2023-01-16T18:22:54;5.40;99.90
25320;DHT22;13256;49.012;8.610;2023-01-16T18:25:21;5.40;99.90
25320;DHT22;13256;49.012;8.610;2023-01-16T18:27:49;5.40;99.90
25320;DHT22;13256;49.012;8.610;2023-01-16T18:30:18;5.40;99.90
25320;DHT22;13256;49.012;8.610;2023-01-16T18:32:45;5.40;99.90
25320;DHT22;13256;49.012;8.610;2023-01-16T18:35:17;5.40;99.90
25320;DHT22;13256;49.012;8.610;2023-01-16T18:37:44;5.40;99.90
25320;DHT22;13256;49.012;8.610;2023-01-16T18:40:30;5.30;99.90
25320;DHT22;13256;49.012;8.610;2023-01-16T18:43:16;5.30;99.90
25320;DHT22;13256;49.012;8.610;2023-01-16T18:46:04;5.30;99.90
25320;DHT22;13256;49.012;8.610;2023-01-16T18:48:49;5.30;99.90
25320;DHT22;13256;49.012;8.610;2023-01-16T18:51:35;5.20;99.90
25320;DHT22;13256;49.012;8.610;2023-01-16T18:54:20;5.20;99.90
25320;DHT22;13256;49.012;8.610;2023-01-16T18:57:12;5.10;99.90
25320;DHT22;13256;49.012;8.610;2023-01-16T18:59:57;5.10;99.90
25320;DHT22;13256;49.012;8.610;2023-01-16T19:02:48;5.00;99.90
25320;DHT22;13256;49.012;8.610;2023-01-16T19:05:22;5.00;99.90
25320;DHT22;13256;49.012;8.610;2023-01-16T19:07:51;5.00;99.90
25320;DHT22;13256;49.012;8.610;2023-01-16T19:10:24;5.00;99.90
25320;DHT22;13256;49.012;8.610;2023-01-16T19:12:53;5.00;99.90
25320;DHT22;13256;49.012;8.610;2023-01-16T19:15:20;5.00;99.90
25320;DHT22;13256;49.012;8.610;2023-01-16T19:17:48;5.00;99.90
25320;DHT22;13256;49.012;8.610;2023-01-16T19:20:17;5.00;99.90
25320;DHT22;13256;49.012;8.610;2023-01-16T19:22:46;5.00;99.90
25320;DHT22;13256;49.012;8.610;2023-01-16T19:25:13;5.00;99.90
25320;DHT22;13256;49.012;8.610;2023-01-16T19:27:45;5.00;99.90
25320;DHT22;13256;49.012;8.610;2023-01-16T19:30:18;5.00;99.90
25320;DHT22;13256;49.012;8.610;2023-01-16T19:32:44;5.00;99.90
25320;DHT22;13256;49.012;8.610;2023-01-16T19:35:13;4.90;99.90
25320;DHT22;13256;49.012;8.610;2023-01-16T19:37:40;4.90;99.90
25320;DHT22;13256;49.012;8.610;2023-01-16T19:40:13;4.90;99.90
25320;DHT22;13256;49.012;8.610;2023-01-16T19:42:40;4.90;99.90
25320;DHT22;13256;49.012;8.610;2023-01-16T19:45:30;4.90;99.90
25320;DHT22;13256;49.012;8.610;2023-01-16T19:48:22;4.80;99.90
25320;DHT22;13256;49.012;8.610;2023-01-16T19:50:52;4.80;99.90
25320;DHT22;13256;49.012;8.610;2023-01-16T19:53:21;4.80;99.90
25320;DHT22;13256;49.012;8.610;2023-01-16T19:55:48;4.80;99.90
25320;DHT22;13256;49.012;8.610;2023-01-16T19:58:15;4.80;99.90
25320;DHT22;13256;49.012;8.610;2023-01-16T20:00:41;4.80;99.90
25320;DHT22;13256;49.012;8.610;2023-01-16T20:03:28;4.80;99.90
25320;DHT22;13256;49.012;8.610;2023-01-16T20:05:55;4.90;99.90
25320;DHT22;13256;49.012;8.610;2023-01-16T20:08:22;4.80;99.90
25320;DHT22;13256;49.012;8.610;2023-01-16T20:10:50;4.80;99.90
25320;DHT22;13256;49.012;8.610;2023-01-16T20:13:17;4.80;99.90